Pageville, Pennsylvania
Current Conditions -  °F | °C
As of 5:23 PM on Wednesday 22 Oct 2014 (Local Time) from KHZY Reporting Station
Overcast Overcast  
Wind Chill: 47°   Ceiling: 4100
Heat Index: 49°   Visibility: 10mi
Dew Point: 41°   Wind: 6mph
Humidity: 74%   Direction: NA
Pressure: 30.24"   Gusts: NA
Location:  41.8831°N, 80.4041°W
Report Text: KHZY 222123Z AUTO VRB05KT 10SM SCT022 OVC041 09/05 A3024 RMK AO2 T00940050
Loading
Personal Weather Stations






























Interactive Weather Map
Tropical Storm Tracking
New forecast layout! Learn more

10-Day Weather Forecast

Advertisements
Track Severe Weather on mobile